Trollhattan, Sweden

8:34 AM CEST on July 31, 2016 (GMT +0200)
IVGTALAN2 | | Change Station

Elev 146 ft 58.29 °N, 12.31 °E | Updated 2 seconds ago

Partly Cloudy
Partly Cloudy
61.5 °F
Feels Like 61.5 °F
N
16.4
Wind Variable Wind from SW
Gusts 16.4 mph

Today
High -- | Low -- °F
--% Chance of Precip.
Yesterday
High -- | Low -- °F
Precip. -- in
Pressure 29.74 in
Visibility 6.2 miles
Clouds Few 2500 ft
Dew Point 53 °F
Humidity 74%
Rainfall 0.00 in
Snow Depth Not available.
5:00 AM 9:31 PM
Waning Crescent, 8% visible
METAR ESIB 310620Z AUTO 24016KT 9999 FEW025/// 16/12 Q1007
Pressure 29.74 in
Visibility 6.2 miles
Clouds Few 2500 ft
Dew Point 53 °F
Humidity 74%
Rainfall 0.00 in
Snow Depth Not available.
5:00 AM 9:31 PM
Waning Crescent, 8% visible
METAR ESIB 310620Z AUTO 24016KT 9999 FEW025/// 16/12 Q1007

10-Day Weather Forecast

×

Almanac

Astronomy

Jul. 31, 2016 Rise Set
Actual Time
Civil Twilight
Nautical Twilight
Astronomical Twilight
Moon
Length of Visible Light
Length of Day
Tomorrow will be .
, % of the Moon is Illuminated

Today's Extremes

Country Highs Country Lows

Community

WunderPhotos

Upload Photos

1,928,766 photos uploaded!

WunderBlog® & News

Nearby

Air Quality

  Air Quality AQ Index Pollutant
Not available.

Snow Depth

Station Depth Elevation

Earthquake Activity

City Distance Mag. Time & Date
Minimum magnitude displayed is 2.5.

Coastal Water Temperatures

Place Temperature

Stations

Nearby Weather Stations

Station Location Temp. Windchill Dew Point Humidity Wind Precip. Elev Updated Type